Time;durP1;ratioP1;P1;durP2;ratioP2;P2;SDS_P1;SDS_P2;PMS_P1;PMS_P2;Temp;Humidity;BMP_temperature;BMP_pressure;BME280_temperature;BME280_humidity;BME280_pressure;Samples;Min_cycle;Max_cycle;Signal;HPM_P1;HPM_P2
2023/10/16 00:00:32;;;;;;;1.40;0.70;;;;;;;6.01;100.00;101848.59;6253354;28;20454;-72
2023/10/16 00:03:38;;;;;;;3.20;1.42;;;;;;;5.99;100.00;101840.78;6253377;28;20362;-72
2023/10/16 00:06:39;;;;;;;3.53;0.88;;;;;;;5.99;100.00;101846.00;6253552;28;20045;-72
2023/10/16 00:09:41;;;;;;;3.50;0.57;;;;;;;6.03;100.00;101846.81;6253545;28;20049;-72
2023/10/16 00:12:43;;;;;;;4.32;0.63;;;;;;;6.02;100.00;101843.34;6253198;28;20048;-73
2023/10/16 00:15:49;;;;;;;5.65;0.95;;;;;;;5.99;100.00;101840.78;6253504;28;20056;-72
2023/10/16 00:18:53;;;;;;;1.42;0.73;;;;;;;5.99;100.00;101852.97;6253361;28;20058;-72
2023/10/16 00:21:57;;;;;;;3.30;0.60;;;;;;;5.91;100.00;101842.63;6252978;28;20515;-72
2023/10/16 00:24:58;;;;;;;1.15;0.60;;;;;;;5.97;100.00;101841.69;6252572;28;20050;-72
2023/10/16 00:28:01;;;;;;;2.33;0.85;;;;;;;5.98;100.00;101840.81;6253216;28;20049;-73
2023/10/16 00:31:03;;;;;;;1.55;0.52;;;;;;;5.92;100.00;101841.78;6252795;28;20049;-73
2023/10/16 00:34:08;;;;;;;0.60;0.50;;;;;;;5.99;100.00;101850.34;6252703;28;20366;-73
2023/10/16 00:37:11;;;;;;;2.55;0.50;;;;;;;5.83;100.00;101847.97;6252833;28;20056;-72
2023/10/16 00:40:13;;;;;;;3.00;0.82;;;;;;;5.78;100.00;101844.56;6252373;28;20060;-72
2023/10/16 00:43:19;;;;;;;5.47;0.75;;;;;;;5.82;100.00;101838.44;6252816;28;20130;-72
2023/10/16 00:46:32;;;;;;;2.97;0.65;;;;;;;5.80;100.00;101840.19;6252638;28;20350;-73
2023/10/16 00:49:36;;;;;;;1.40;0.35;;;;;;;5.78;100.00;101836.75;6253047;28;20056;-73
2023/10/16 00:52:37;;;;;;;2.72;0.88;;;;;;;5.88;100.00;101842.69;6252264;28;20361;-72
2023/10/16 00:55:39;;;;;;;0.88;0.45;;;;;;;5.90;100.00;101842.66;6252532;28;20057;-73
2023/10/16 00:58:42;;;;;;;1.15;0.60;;;;;;;5.86;100.00;101839.25;6252307;28;20080;-73
2023/10/16 01:01:44;;;;;;;1.00;0.55;;;;;;;5.91;100.00;101829.59;6252109;28;20057;-72
2023/10/16 01:04:47;;;;;;;2.63;0.70;;;;;;;5.92;100.00;101823.50;6251376;28;20352;-72
2023/10/16 01:07:49;;;;;;;6.15;1.15;;;;;;;5.84;100.00;101817.53;6246231;28;20042;-72
2023/10/16 01:10:50;;;;;;;4.13;0.82;;;;;;;5.86;100.00;101818.38;6249090;28;20053;-73
2023/10/16 01:13:53;;;;;;;4.93;0.70;;;;;;;5.83;100.00;101815.81;6252155;28;20053;-72
2023/10/16 01:16:55;;;;;;;5.35;0.60;;;;;;;5.80;100.00;101829.75;6243483;28;20136;-72
2023/10/16 01:19:58;;;;;;;3.88;0.88;;;;;;;5.81;100.00;101828.00;6252109;28;20060;-72
2023/10/16 01:23:04;;;;;;;2.60;0.82;;;;;;;5.80;100.00;101827.13;6251667;28;20056;-72
2023/10/16 01:26:08;;;;;;;11.43;1.08;;;;;;;5.78;100.00;101834.16;6243404;28;20048;-73
2023/10/16 01:29:10;;;;;;;4.50;0.73;;;;;;;5.75;100.00;101828.97;6251558;28;20080;-72
2023/10/16 01:32:13;;;;;;;5.75;0.70;;;;;;;5.78;100.00;101828.94;6243097;28;20057;-72
2023/10/16 01:35:14;;;;;;;3.15;0.80;;;;;;;5.79;100.00;101824.56;6250873;28;20053;-72
2023/10/16 01:38:18;;;;;;;4.25;0.60;;;;;;;5.81;100.00;101828.00;6251139;28;20053;-72
2023/10/16 01:41:19;;;;;;;2.78;0.52;;;;;;;5.80;100.00;101831.50;6248750;28;20049;-72
2023/10/16 01:44:20;;;;;;;1.60;0.50;;;;;;;5.77;100.00;101837.66;6237844;28;20434;-73
2023/10/16 01:47:22;;;;;;;3.35;0.77;;;;;;;5.71;100.00;101842.06;6250561;28;20061;-72
2023/10/16 01:50:26;;;;;;;0.93;0.73;;;;;;;5.67;100.00;101843.88;6250705;28;20061;-72
2023/10/16 01:53:32;;;;;;;8.32;0.93;;;;;;;5.70;100.00;101840.38;6232472;28;20112;-72
2023/10/16 01:56:34;;;;;;;1.38;0.50;;;;;;;5.72;100.00;101839.47;6226581;28;20060;-73
2023/10/16 01:59:36;;;;;;;5.10;0.60;;;;;;;5.72;100.00;101835.97;6226671;28;20387;-72
2023/10/16 02:02:39;;;;;;;2.60;0.80;;;;;;;5.70;100.00;101837.75;6226398;28;20052;-72
2023/10/16 02:05:41;;;;;;;2.38;0.68;;;;;;;5.69;100.00;101820.41;6241983;28;20139;-72
2023/10/16 02:08:46;;;;;;;1.50;0.70;;;;;;;5.74;100.00;101822.03;6247075;28;20147;-72
2023/10/16 02:11:48;;;;;;;3.47;0.82;;;;;;;5.76;100.00;101822.84;6250448;28;20052;-72
2023/10/16 02:14:49;;;;;;;1.38;0.55;;;;;;;5.72;100.00;101820.31;6250687;28;20053;-72
2023/10/16 02:17:50;;;;;;;1.35;0.50;;;;;;;5.67;100.00;101823.00;6250645;28;20060;-72
2023/10/16 02:20:52;;;;;;;2.85;1.00;;;;;;;5.69;100.00;101828.22;6250274;28;20049;-72
2023/10/16 02:23:55;;;;;;;8.65;0.90;;;;;;;5.67;100.00;101824.75;6250643;28;20124;-72
2023/10/16 02:27:02;;;;;;;4.22;0.47;;;;;;;5.69;100.00;101823.84;6248453;28;20053;-72
2023/10/16 02:30:15;;;;;;;3.80;0.73;;;;;;;5.59;100.00;101823.16;6249528;28;20049;-72
2023/10/16 02:33:26;;;;;;;1.52;0.47;;;;;;;5.63;100.00;101826.53;6249993;28;20050;-72
2023/10/16 02:36:28;;;;;;;0.90;0.60;;;;;;;5.68;100.00;101831.69;6242134;28;20077;-73
2023/10/16 02:39:37;;;;;;;2.25;0.75;;;;;;;5.74;100.00;101821.19;6250185;28;20055;-72
2023/10/16 02:42:39;;;;;;;;;;;;;;;5.72;100.00;101813.38;6246943;28;20142;-72
2023/10/16 02:45:42;;;;;;;10.00;0.85;;;;;;;5.73;100.00;101822.06;6225891;28;19928;-72
2023/10/16 02:48:43;;;;;;;2.47;1.02;;;;;;;5.72;100.00;101812.50;6229723;28;20445;-73
2023/10/16 02:51:45;;;;;;;5.38;1.15;;;;;;;5.74;100.00;101821.19;6230486;28;20064;-72
2023/10/16 02:54:48;;;;;;;1.98;0.63;;;;;;;5.69;100.00;101815.19;6230928;28;20460;-73
2023/10/16 02:57:50;;;;;;;3.80;1.08;;;;;;;5.69;100.00;101808.22;6230560;28;20058;-73
2023/10/16 03:00:55;;;;;;;2.33;1.08;;;;;;;5.68;100.00;101810.81;6230143;28;20378;-72
2023/10/16 03:03:58;;;;;;;3.80;1.05;;;;;;;5.66;100.00;101813.47;6230365;28;20346;-72
2023/10/16 03:07:00;;;;;;;2.13;0.60;;;;;;;5.69;100.00;101815.19;6230639;28;20184;-73
2023/10/16 03:10:03;;;;;;;1.48;0.82;;;;;;;5.66;100.00;101813.47;6230220;28;20053;-72
2023/10/16 03:13:05;;;;;;;2.28;0.70;;;;;;;5.57;100.00;101805.78;6230199;28;20053;-72
2023/10/16 03:16:15;;;;;;;1.27;0.50;;;;;;;5.54;100.00;101804.09;6230238;28;20049;-73
2023/10/16 03:19:17;;;;;;;2.80;0.50;;;;;;;5.59;100.00;101798.81;6230004;28;20056;-73
2023/10/16 03:22:18;;;;;;;0.88;0.60;;;;;;;5.59;100.00;101807.50;6230034;28;20052;-73
2023/10/16 03:25:50;;;;;;;2.20;0.93;;;;;;;5.62;100.00;101805.72;6229965;28;20053;-73
2023/10/16 03:28:49;;;;;;;0.57;0.50;;;;;;;5.67;100.00;101809.09;6229800;28;20081;-72
2023/10/16 03:31:51;;;;;;;5.50;1.73;;;;;;;5.71;100.00;101809.03;6242928;28;20053;-73
2023/10/16 03:34:52;;;;;;;2.03;1.08;;;;;;;5.73;100.00;101812.50;6254576;28;20053;-72
2023/10/16 03:37:54;;;;;;;6.18;0.63;;;;;;;5.77;100.00;101808.09;6254041;28;20050;-73
2023/10/16 03:40:58;;;;;;;3.42;0.93;;;;;;;5.74;100.00;101811.59;6253383;28;20057;-72
2023/10/16 03:44:07;;;;;;;1.88;0.68;;;;;;;5.72;100.00;101815.09;6247401;28;20057;-73
2023/10/16 03:47:10;;;;;;;6.93;0.90;;;;;;;5.75;100.00;101808.09;6253322;28;20464;-73
2023/10/16 03:50:13;;;;;;;1.33;0.55;;;;;;;5.81;100.00;101817.56;6253541;28;20456;-72
2023/10/16 03:53:14;;;;;;;7.47;1.10;;;;;;;5.75;100.00;101815.94;6253523;28;20099;-73
2023/10/16 03:56:17;;;;;;;1.70;0.75;;;;;;;5.82;100.00;101820.16;6245930;28;20075;-73
2023/10/16 03:59:19;;;;;;;0.93;0.70;;;;;;;5.80;100.00;101816.72;6252839;28;20052;-73
2023/10/16 04:02:22;;;;;;;1.83;0.88;;;;;;;5.83;100.00;101811.44;6253548;28;20053;-72
2023/10/16 04:05:38;;;;;;;1.75;0.90;;;;;;;5.82;100.00;101806.28;6253857;28;20054;-73
2023/10/16 04:08:40;;;;;;;3.47;0.82;;;;;;;5.82;100.00;101811.50;6253648;28;20045;-73
2023/10/16 04:11:48;;;;;;;2.85;0.70;;;;;;;5.82;100.00;101812.34;6253140;28;20465;-72
2023/10/16 04:14:55;;;;;;;3.53;0.65;;;;;;;5.84;100.00;101817.53;6253327;28;20358;-72
2023/10/16 04:18:04;;;;;;;2.72;0.85;;;;;;;5.87;100.00;101817.50;6253438;28;20045;-72
2023/10/16 04:24:40;;;;;;;2.10;0.90;;;;;;;5.85;100.00;101812.28;6249492;28;20085;-72
2023/10/16 04:27:42;;;;;;;2.60;0.70;;;;;;;5.86;100.00;101802.72;6253028;28;20346;-73
2023/10/16 04:30:47;;;;;;;1.75;0.60;;;;;;;5.86;100.00;101805.34;6252953;28;20049;-72
2023/10/16 04:33:53;;;;;;;5.45;1.23;;;;;;;5.88;100.00;101813.13;6252788;28;20346;-74
2023/10/16 04:37:24;;;;;;;3.47;0.70;;;;;;;5.99;100.00;101808.59;6253098;28;20046;-74
2023/10/16 04:41:51;;;;;;;2.15;1.00;;;;;;;6.04;100.00;101805.06;6250757;28;20049;-73
2023/10/16 04:44:22;;;;;;;2.40;0.65;;;;;;;6.17;100.00;101799.59;6249323;28;20446;-74
2023/10/16 04:47:17;;;;;;;0.73;0.73;;;;;;;6.16;100.00;101805.72;6252554;28;20055;-73
2023/10/16 04:50:29;;;;;;;1.15;0.75;;;;;;;6.12;100.00;101802.28;6252196;28;20496;-73
2023/10/16 04:53:39;;;;;;;3.33;0.70;;;;;;;6.22;100.00;101800.38;6252729;28;20050;-74
2023/10/16 04:56:57;;;;;;;5.57;0.60;;;;;;;6.21;100.00;101801.25;6252420;28;20049;-73
2023/10/16 05:00:28;;;;;;;4.50;0.80;;;;;;;6.22;100.00;101796.03;6252354;28;20136;-73
2023/10/16 05:03:35;;;;;;;1.33;0.50;;;;;;;6.31;100.00;101792.38;6252029;28;20486;-74
2023/10/16 05:06:48;;;;;;;3.08;0.68;;;;;;;6.30;100.00;101791.50;6252379;28;20111;-74
2023/10/16 05:13:24;;;;;;;10.40;0.73;;;;;;;6.43;100.00;101788.66;6218944;28;20095;-74
2023/10/16 05:16:30;;;;;;;5.35;0.65;;;;;;;6.44;100.00;101786.03;6251836;28;20132;-73
2023/10/16 05:19:43;;;;;;;3.95;0.70;;;;;;;6.41;100.00;101785.25;6251770;28;20299;-74
2023/10/16 06:15:55;;;;;;;2.40;1.15;;;;;;;6.46;100.00;101815.59;6203553;28;20053;-73
2023/10/16 06:18:59;;;;;;;1.77;0.68;;;;;;;6.57;100.00;101821.44;6237644;28;20050;-74
2023/10/16 06:22:06;;;;;;;3.75;0.85;;;;;;;6.65;100.00;101817.84;6225300;28;20050;-74
2023/10/16 06:25:10;;;;;;;4.22;1.13;;;;;;;6.65;100.00;101825.69;6226427;28;20050;-73
2023/10/16 06:28:15;;;;;;;7.20;1.23;;;;;;;6.68;100.00;101815.19;6231929;28;20045;-74
2023/10/16 06:31:22;;;;;;;2.55;0.80;;;;;;;6.71;100.00;101825.53;6237599;28;20073;-74
2023/10/16 06:34:24;;;;;;;4.07;1.20;;;;;;;6.65;100.00;101820.44;6241501;28;20084;-74
2023/10/16 06:37:28;;;;;;;10.90;1.00;;;;;;;6.71;100.00;101817.72;6244405;28;20046;-73
2023/10/16 06:40:32;;;;;;;2.08;0.90;;;;;;;6.75;100.00;101812.38;6243687;28;20064;-74
2023/10/16 06:43:35;;;;;;;4.47;1.00;;;;;;;6.81;100.00;101822.75;6241895;28;20096;-74
2023/10/16 06:46:37;;;;;;;3.72;1.00;;;;;;;6.80;100.00;101826.22;6241361;28;20438;-75
2023/10/16 06:49:38;;;;;;;3.95;1.30;;;;;;;6.83;100.00;101836.63;6239354;28;20073;-74
2023/10/16 06:52:42;;;;;;;0.95;0.65;;;;;;;6.84;100.00;101829.63;6240975;28;20049;-74
2023/10/16 06:55:45;;;;;;;5.20;0.80;;;;;;;6.87;100.00;101821.75;6240217;28;20097;-74
2023/10/16 06:58:46;;;;;;;2.53;1.05;;;;;;;6.94;100.00;101832.91;6248720;28;20134;-74
2023/10/16 07:01:50;;;;;;;3.42;0.80;;;;;;;6.93;100.00;101828.59;6247992;28;20064;-74
2023/10/16 07:04:51;;;;;;;6.78;1.50;;;;;;;6.96;100.00;101834.63;6248409;28;20519;-74
2023/10/16 07:07:56;;;;;;;1.52;0.90;;;;;;;7.02;100.00;101833.63;6248613;28;20042;-74
2023/10/16 07:11:03;;;;;;;1.48;0.70;;;;;;;7.03;100.00;101835.34;6250308;28;20056;-75
2023/10/16 07:14:11;;;;;;;1.05;0.90;;;;;;;7.03;100.00;101841.41;6249984;28;20053;-75
2023/10/16 07:17:13;;;;;;;2.08;1.60;;;;;;;7.10;100.00;101840.41;6250145;28;20056;-75
2023/10/16 07:20:27;;;;;;;1.20;0.90;;;;;;;7.09;100.00;101837.84;6249729;28;20049;-75
2023/10/16 07:23:34;;;;;;;1.20;1.00;;;;;;;7.14;100.00;101840.34;6250113;28;20060;-74
2023/10/16 07:26:35;;;;;;;2.05;1.20;;;;;;;7.19;100.00;101847.19;6249926;28;20053;-74
2023/10/16 07:29:38;;;;;;;6.82;1.25;;;;;;;7.10;100.00;101842.16;6249934;28;20158;-74
2023/10/16 07:32:42;;;;;;;1.98;1.08;;;;;;;7.10;100.00;101842.16;6249706;28;20195;-74
2023/10/16 07:35:45;;;;;;;1.48;0.95;;;;;;;7.11;100.00;101849.09;6254669;28;20148;-74
2023/10/16 07:38:50;;;;;;;7.35;1.40;;;;;;;7.11;100.00;101843.88;6254149;28;20052;-74
2023/10/16 07:41:53;;;;;;;4.68;1.38;;;;;;;7.18;100.00;101848.09;6253744;28;20065;-74
2023/10/16 07:44:56;;;;;;;3.70;1.25;;;;;;;7.24;100.00;101841.88;6254358;28;20049;-74
2023/10/16 07:48:07;;;;;;;1.98;1.15;;;;;;;7.30;100.00;101842.56;6253903;28;20075;-74
2023/10/16 07:51:09;;;;;;;2.92;1.27;;;;;;;7.34;100.00;101844.22;6253835;28;20054;-75
2023/10/16 07:54:12;;;;;;;2.65;1.15;;;;;;;7.35;100.00;101845.94;6253798;28;20386;-75
2023/10/16 07:57:17;;;;;;;6.53;1.45;;;;;;;7.32;100.00;101853.03;6253900;28;20060;-74
2023/10/16 08:00:25;;;;;;;6.95;1.33;;;;;;;7.42;100.00;101849.31;6253503;28;20058;-74
2023/10/16 08:03:27;;;;;;;2.57;1.10;;;;;;;7.54;100.00;101850.75;6254013;28;20448;-75
2023/10/16 08:06:28;;;;;;;2.40;1.35;;;;;;;7.56;100.00;101852.47;6253629;28;20053;-75
2023/10/16 08:12:47;;;;;;;4.30;1.73;;;;;;;7.62;100.00;101847.06;6252991;28;20061;-75
2023/10/16 08:15:49;;;;;;;5.10;1.55;;;;;;;7.72;100.00;101849.47;6253393;28;20373;-74
2023/10/16 08:18:51;;;;;;;3.55;1.60;;;;;;;7.78;100.00;101851.97;6253263;28;20060;-75
2023/10/16 08:21:56;;;;;;;6.68;1.30;;;;;;;7.85;100.00;101856.13;6253004;28;20472;-74
2023/10/16 08:24:59;;;;;;;3.38;1.55;;;;;;;7.81;100.00;101858.00;6253179;28;20094;-74
2023/10/16 08:28:18;;;;;;;3.22;2.00;;;;;;;7.86;100.00;101850.88;6253329;28;20057;-74
2023/10/16 08:31:25;;;;;;;2.40;1.45;;;;;;;7.87;100.00;101855.22;6252830;28;20460;-74
2023/10/16 08:34:27;;;;;;;1.20;1.10;;;;;;;7.98;100.00;101856.69;6252952;28;20464;-74
2023/10/16 08:37:28;;;;;;;3.88;1.60;;;;;;;8.10;100.00;101866.88;6252764;28;20049;-75
2023/10/16 08:40:34;;;;;;;3.60;1.85;;;;;;;8.17;100.00;101867.56;6252770;28;20053;-74
2023/10/16 08:43:52;;;;;;;4.25;1.58;;;;;;;8.20;100.00;101865.75;6252701;28;20348;-74
2023/10/16 08:47:11;;;;;;;9.95;2.10;;;;;;;8.14;100.00;101872.00;6252501;28;20064;-74
2023/10/16 08:50:20;;;;;;;7.07;1.85;;;;;;;8.20;100.00;101875.34;6252180;28;20049;-74
2023/10/16 08:56:39;;;;;;;5.82;1.38;;;;;;;8.27;100.00;101867.31;6249721;28;20057;-73
2023/10/16 08:59:42;;;;;;;4.38;1.95;;;;;;;8.30;100.00;101871.59;6252399;28;20075;-74
2023/10/16 09:02:44;;;;;;;5.47;1.45;;;;;;;8.31;100.00;101862.84;6252115;28;20137;-73
2023/10/16 09:05:45;;;;;;;2.05;1.50;;;;;;;8.34;100.00;101873.25;6252213;28;20072;-73
2023/10/16 09:08:48;;;;;;;3.55;1.40;;;;;;;8.36;100.00;101864.50;6252045;28;20050;-72
2023/10/16 09:11:51;;;;;;;1.52;1.40;;;;;;;8.36;100.00;101864.50;6251926;28;20052;-72
2023/10/16 09:14:53;;;;;;;2.88;1.45;;;;;;;8.48;100.00;101867.66;6251992;28;20060;-74
2023/10/16 09:17:55;;;;;;;2.00;1.20;;;;;;;8.56;100.00;101871.81;6251983;28;20060;-73
2023/10/16 09:21:00;;;;;;;4.63;1.73;;;;;;;8.65;100.00;101883.81;6251751;28;20135;-74
2023/10/16 09:24:03;;;;;;;2.50;1.55;;;;;;;8.67;100.00;101881.13;6251714;28;20112;-74
2023/10/16 09:27:13;;;;;;;4.63;1.63;;;;;;;8.76;100.00;101886.97;6251709;28;20361;-74
2023/10/16 09:30:15;;;;;;;4.07;1.65;;;;;;;8.83;100.00;101880.69;6251635;28;20053;-74
2023/10/16 09:33:17;;;;;;;7.43;1.80;;;;;;;8.85;100.00;101888.50;6251551;28;20445;-74
2023/10/16 09:36:20;;;;;;;2.15;1.45;;;;;;;8.88;100.00;101891.88;6251440;28;20060;-74
2023/10/16 09:39:30;;;;;;;1.90;1.40;;;;;;;8.97;100.00;101892.53;6251392;28;20049;-74
2023/10/16 09:42:34;;;;;;;;;;;;;;;8.99;100.00;101902.06;6251613;28;20052;-73
2023/10/16 09:45:37;;;;;;;3.78;1.63;;;;;;;9.00;100.00;101893.31;6251398;28;20335;-73
2023/10/16 09:48:39;;;;;;;6.07;1.55;;;;;;;8.97;100.00;101901.25;6251248;28;20426;-73
2023/10/16 09:51:44;;;;;;;3.53;1.45;;;;;;;9.03;100.00;101893.22;6251032;28;20426;-73
2023/10/16 09:54:46;;;;;;;1.77;0.93;;;;;;;9.08;100.00;101904.47;6251103;28;20057;-73
2023/10/16 09:57:51;;;;;;;3.63;1.05;;;;;;;9.11;100.00;101890.38;6250101;28;20072;-73
2023/10/16 10:01:00;;;;;;;1.50;0.82;;;;;;;9.16;100.00;101893.72;6250782;28;20054;-73
2023/10/16 10:04:04;;;;;;;3.53;0.95;;;;;;;9.12;100.00;101895.56;6251356;28;20132;-73
2023/10/16 10:07:19;;;;;;;7.60;1.15;;;;;;;9.26;100.00;101899.56;6248012;28;20053;-74
2023/10/16 10:13:45;;;;;;;2.42;0.80;;;;;;;9.34;100.00;101897.56;6248706;28;20058;-74
2023/10/16 10:16:50;;;;;;;9.82;3.03;;;;;;;9.30;100.00;101903.81;6239792;28;20041;-74
2023/10/16 10:19:56;;;;;;;3.83;1.40;;;;;;;9.25;100.00;101903.09;6246133;28;20054;-73
2023/10/16 10:22:59;;;;;;;3.95;0.80;;;;;;;9.31;100.00;101892.41;6238258;28;20140;-73
2023/10/16 10:26:05;;;;;;;2.10;1.10;;;;;;;9.38;100.00;101899.22;6248741;28;20053;-74
2023/10/16 10:29:11;;;;;;;1.10;0.68;;;;;;;9.41;100.00;101891.25;6239403;28;20042;-75
2023/10/16 10:32:15;;;;;;;2.95;0.90;;;;;;;9.35;100.00;101888.78;6272580;22;20037;-71
2023/10/16 10:35:23;;;;;;;1.63;0.82;;;;;;;9.48;100.00;101884.91;6273749;28;20057;-72
2023/10/16 10:38:29;;;;;;;3.03;1.00;;;;;;;9.62;100.00;101895.81;6270206;28;20049;-72
2023/10/16 10:41:47;;;;;;;1.92;0.85;;;;;;;9.64;100.00;101886.16;6276512;28;20064;-72
2023/10/16 10:48:16;;;;;;;5.13;0.93;;;;;;;9.83;100.00;101881.19;6240282;28;20050;-73
2023/10/16 10:51:18;;;;;;;4.47;1.00;;;;;;;9.90;100.00;101876.56;6247948;28;20049;-74
2023/10/16 10:54:24;;;;;;;2.40;0.85;;;;;;;9.85;100.00;101870.63;6241953;28;20056;-73
2023/10/16 10:57:26;;;;;;;1.30;0.73;;;;;;;9.87;100.00;101877.56;6247443;28;20058;-73
2023/10/16 11:00:44;;;;;;;0.80;0.60;;;;;;;9.92;100.00;101874.78;6244519;28;20049;-73
2023/10/16 11:03:46;;;;;;;1.58;0.63;;;;;;;10.00;100.00;101874.53;6248588;28;20049;-73
2023/10/16 11:06:52;;;;;;;6.47;0.90;;;;;;;10.02;100.00;101870.94;6247800;28;20149;-73
2023/10/16 11:09:54;;;;;;;2.00;0.60;;;;;;;10.19;100.00;101870.38;6246422;28;20045;-72
2023/10/16 11:13:03;;;;;;;1.17;0.70;;;;;;;10.30;100.00;101865.63;6250735;28;20052;-73
2023/10/16 11:16:09;;;;;;;6.88;1.75;;;;;;;10.26;100.00;101869.28;6245880;28;20058;-73
2023/10/16 11:19:10;;;;;;;3.42;0.90;;;;;;;10.31;100.00;101864.75;6251711;28;20349;-72
2023/10/16 11:22:18;;;;;;;4.97;0.85;;;;;;;10.28;100.00;101862.22;6249022;28;20053;-73
2023/10/16 11:25:20;;;;;;;2.08;1.02;;;;;;;10.29;100.00;101860.44;6247027;28;20136;-73
2023/10/16 11:28:22;;;;;;;1.20;0.63;;;;;;;10.51;100.00;101855.31;6247330;28;20052;-74
2023/10/16 11:31:25;;;;;;;0.77;0.60;;;;;;;10.62;100.00;101855.78;6252736;28;20053;-72
2023/10/16 11:34:28;;;;;;;0.82;0.60;;;;;;;10.50;100.00;101857.09;6243659;28;20080;-74
2023/10/16 11:37:34;;;;;;;2.10;0.70;;;;;;;10.51;100.00;101853.53;6243268;28;20183;-71
2023/10/16 11:40:39;;;;;;;3.28;0.65;;;;;;;10.55;100.00;101856.91;6246795;28;20052;-73
2023/10/16 11:43:47;;;;;;;7.20;0.88;;;;;;;10.55;100.00;101854.28;6251491;28;20055;-73
2023/10/16 11:46:52;;;;;;;3.03;0.63;;;;;;;10.55;100.00;101854.28;6249412;28;20045;-73
2023/10/16 11:49:54;;;;;;;2.33;0.77;;;;;;;10.50;100.00;101848.34;6249840;28;20460;-72
2023/10/16 11:52:55;;;;;;;3.00;0.88;;;;;;;10.54;100.00;101845.56;6253888;28;20056;-73
2023/10/16 11:55:57;;;;;;;5.72;0.98;;;;;;;10.56;100.00;101842.84;6253696;28;20057;-73
2023/10/16 11:58:59;;;;;;;1.83;1.08;;;;;;;10.50;100.00;101843.09;6253810;28;20041;-73
2023/10/16 12:02:10;;;;;;;1.85;0.50;;;;;;;10.59;100.00;101837.50;6253388;28;20373;-73
2023/10/16 12:05:12;;;;;;;1.98;0.80;;;;;;;10.63;100.00;101839.97;6253764;28;20057;-73
2023/10/16 12:08:18;;;;;;;1.08;0.60;;;;;;;10.66;100.00;101836.34;6252041;28;20045;-74
2023/10/16 12:11:19;;;;;;;1.05;0.77;;;;;;;10.77;100.00;101844.72;6249661;28;20073;-73
2023/10/16 12:14:23;;;;;;;1.20;0.77;;;;;;;10.87;100.00;101838.19;6253081;28;20343;-74
2023/10/16 12:17:28;;;;;;;1.00;0.60;;;;;;;10.99;100.00;101846.53;6235046;28;20464;-73
2023/10/16 12:20:30;;;;;;;1.65;0.93;;;;;;;10.83;100.00;101854.16;6249339;28;20342;-73
2023/10/16 12:23:33;;;;;;;1.27;0.70;;;;;;;10.71;100.00;101857.22;6253362;28;20060;-73
2023/10/16 12:26:35;;;;;;;1.10;0.60;;;;;;;10.48;100.00;101848.38;6253056;28;20049;-73
2023/10/16 12:29:36;;;;;;;1.38;0.70;;;;;;;10.25;100.00;101853.56;6253238;28;20041;-74
2023/10/16 12:32:39;;;;;;;1.55;0.70;;;;;;;10.10;100.00;101852.31;6252741;28;20045;-74
2023/10/16 12:35:41;;;;;;;1.40;1.00;;;;;;;10.04;100.00;101842.00;6252929;28;20053;-74
2023/10/16 12:38:44;;;;;;;3.42;0.90;;;;;;;9.85;100.00;101841.75;6244176;28;20311;-74
2023/10/16 12:41:46;;;;;;;1.35;0.88;;;;;;;9.77;100.00;101849.03;6259488;28;20456;-75
2023/10/16 12:44:47;;;;;;;1.38;0.70;;;;;;;9.69;100.00;101848.41;6277442;28;20369;-74
2023/10/16 12:47:51;;;;;;;3.75;0.90;;;;;;;9.71;100.00;101863.19;6277296;28;20059;-74
2023/10/16 12:50:53;;;;;;;3.25;1.25;;;;;;;9.61;100.00;101856.50;6277090;28;20057;-72
2023/10/16 12:53:55;;;;;;;1.83;1.00;;;;;;;9.64;100.00;101844.16;6277191;28;20059;-74
2023/10/16 12:56:57;;;;;;;3.13;0.80;;;;;;;9.53;100.00;101843.63;6277404;28;20049;-73
2023/10/16 12:59:58;;;;;;;6.40;1.10;;;;;;;9.90;100.00;101845.94;6260462;28;20060;-73
2023/10/16 13:03:13;;;;;;;2.72;0.80;;;;;;;10.32;100.00;101834.94;6245623;28;20056;-74
2023/10/16 13:06:15;;;;;;;4.78;0.85;;;;;;;10.90;100.00;101839.84;6250871;28;20049;-73
2023/10/16 13:09:17;;;;;;;3.38;1.05;;;;;;;10.99;100.00;101839.53;6244098;28;20046;-72
2023/10/16 13:12:21;;;;;;;1.45;0.75;;;;;;;11.04;100.00;101837.59;6243161;28;20103;-73
2023/10/16 13:15:25;;;;;;;0.95;0.60;;;;;;;11.09;100.00;101843.53;6252253;28;20060;-72
2023/10/16 13:18:28;;;;;;;1.83;0.73;;;;;;;11.04;100.00;101839.38;6250842;28;20046;-71
2023/10/16 13:21:33;;;;;;;1.00;0.85;;;;;;;11.24;100.00;101849.97;6240606;28;20045;-72
2023/10/16 13:24:35;;;;;;;3.17;0.70;;;;;;;11.42;100.00;101844.00;6250740;28;20050;-73
2023/10/16 13:27:37;;;;;;;1.50;0.93;;;;;;;11.12;100.00;101840.75;6243047;28;20050;-72
2023/10/16 13:30:38;;;;;;;5.65;0.85;;;;;;;10.89;100.00;101843.41;6251401;28;20053;-72
2023/10/16 13:33:42;;;;;;;4.70;1.00;;;;;;;10.55;100.00;101833.25;6251244;28;20089;-72
2023/10/16 13:36:56;;;;;;;4.43;1.00;;;;;;;10.49;100.00;101842.25;6244779;28;20061;-72
2023/10/16 13:39:57;;;;;;;1.50;0.98;;;;;;;10.37;100.00;101824.25;6239846;28;20042;-72
2023/10/16 13:43:00;;;;;;;2.20;0.95;;;;;;;10.30;100.00;101828.84;6245892;28;20377;-72
2023/10/16 13:46:01;;;;;;;1.08;0.80;;;;;;;10.20;100.00;101830.06;6240905;28;20050;-72
2023/10/16 13:49:04;;;;;;;7.50;1.10;;;;;;;10.36;100.00;101833.06;6245738;28;20050;-72
2023/10/16 13:52:07;;;;;;;5.65;0.70;;;;;;;10.41;100.00;101826.72;6248295;28;20056;-72
2023/10/16 13:55:12;;;;;;;4.70;0.80;;;;;;;10.49;100.00;101822.94;6251187;28;20255;-72
2023/10/16 13:58:14;;;;;;;2.75;0.73;;;;;;;10.35;100.00;101826.91;6240148;28;20054;-72
2023/10/16 14:01:15;;;;;;;1.02;0.60;;;;;;;10.32;100.00;101824.44;6249726;28;20102;-72
2023/10/16 14:04:21;;;;;;;0.65;0.52;;;;;;;10.19;100.00;101825.72;6250730;28;20045;-72
2023/10/16 14:07:22;;;;;;;0.80;0.50;;;;;;;10.09;100.00;101814.69;6250843;28;20406;-72
2023/10/16 14:10:24;;;;;;;2.92;0.60;;;;;;;10.17;100.00;101817.03;6250801;28;20335;-72
2023/10/16 14:13:28;;;;;;;0.47;0.47;;;;;;;10.25;100.00;101822.91;6249214;28;20049;-73
2023/10/16 14:16:32;;;;;;;0.40;0.40;;;;;;;10.19;100.00;101824.88;6246017;28;20053;-72
2023/10/16 14:19:35;;;;;;;0.82;0.70;;;;;;;10.18;100.00;101818.75;6249782;28;20041;-72
2023/10/16 14:22:38;;;;;;;1.13;0.63;;;;;;;10.11;100.00;101820.72;6241748;28;20072;-73
2023/10/16 14:25:47;;;;;;;0.47;0.40;;;;;;;10.07;100.00;101820.88;6242255;28;20060;-73
2023/10/16 14:28:52;;;;;;;0.80;0.40;;;;;;;10.10;100.00;101826.03;6250594;28;20409;-73
2023/10/16 14:31:56;;;;;;;2.22;0.73;;;;;;;10.08;100.00;101823.47;6249622;28;20128;-71
2023/10/16 14:35:00;;;;;;;1.60;0.50;;;;;;;9.95;100.00;101819.53;6249745;28;20050;-71
2023/10/16 14:38:03;;;;;;;1.70;0.55;;;;;;;9.93;100.00;101828.38;6242135;28;20139;-72
2023/10/16 14:41:06;;;;;;;2.08;0.73;;;;;;;9.81;100.00;101829.63;6241405;28;20433;-71
2023/10/16 14:44:08;;;;;;;0.77;0.43;;;;;;;9.80;100.00;101828.75;6242472;28;20453;-71
2023/10/16 14:47:10;;;;;;;2.88;0.52;;;;;;;9.82;100.00;101824.34;6236467;28;20061;-71
2023/10/16 14:50:14;;;;;;;2.50;0.52;;;;;;;9.80;100.00;101825.28;6246754;28;20049;-71
2023/10/16 14:53:19;;;;;;;0.77;0.57;;;;;;;9.75;100.00;101832.44;6248351;28;20060;-71
2023/10/16 14:56:20;;;;;;;2.35;0.40;;;;;;;9.71;100.00;101839.56;6242897;28;20060;-71
2023/10/16 14:59:32;;;;;;;2.08;0.55;;;;;;;9.66;100.00;101837.09;6252557;28;20045;-71
2023/10/16 15:02:33;;;;;;;4.78;0.80;;;;;;;9.66;100.00;101833.59;6249591;28;20362;-72
2023/10/16 15:05:36;;;;;;;1.08;0.70;;;;;;;9.72;100.00;101836.06;6245983;28;20053;-73
2023/10/16 15:08:38;;;;;;;6.47;0.85;;;;;;;9.64;100.00;101838.06;6255210;28;20054;-71
2023/10/16 15:11:40;;;;;;;3.55;1.15;;;;;;;9.68;100.00;101842.31;6254336;28;20056;-73
2023/10/16 15:14:41;;;;;;;1.42;0.80;;;;;;;9.66;100.00;101834.47;6255183;28;20056;-73
2023/10/16 15:17:43;;;;;;;1.48;0.50;;;;;;;9.79;100.00;101828.81;6254797;28;20056;-73
2023/10/16 15:20:46;;;;;;;1.90;0.40;;;;;;;9.82;100.00;101833.97;6254944;28;20049;-71
2023/10/16 15:23:47;;;;;;;0.82;0.60;;;;;;;9.77;100.00;101825.41;6254625;28;20050;-72
2023/10/16 15:26:49;;;;;;;1.98;1.23;;;;;;;9.65;100.00;101824.88;6255059;28;20045;-73
2023/10/16 15:29:50;;;;;;;5.30;1.00;;;;;;;9.69;100.00;101824.78;6254352;28;20053;-72